sensor_id;sensor_type;location;lat;lon;timestamp;temperature;humidity
42755;DHT22;28407;51.830;5.684;2022-09-06T00:00:30;24.20;57.30
42755;DHT22;28407;51.830;5.684;2022-09-06T00:02:31;24.20;57.60
42755;DHT22;28407;51.830;5.684;2022-09-06T00:04:32;24.10;57.90
42755;DHT22;28407;51.830;5.684;2022-09-06T00:06:33;24.10;58.00
42755;DHT22;28407;51.830;5.684;2022-09-06T00:08:33;24.10;58.20
42755;DHT22;28407;51.830;5.684;2022-09-06T00:10:34;24.10;58.40
42755;DHT22;28407;51.830;5.684;2022-09-06T00:12:37;24.10;58.50
42755;DHT22;28407;51.830;5.684;2022-09-06T00:14:37;24.00;58.50
42755;DHT22;28407;51.830;5.684;2022-09-06T00:16:38;24.00;58.70
42755;DHT22;28407;51.830;5.684;2022-09-06T00:18:40;24.00;58.80
42755;DHT22;28407;51.830;5.684;2022-09-06T00:20:41;23.90;58.90
42755;DHT22;28407;51.830;5.684;2022-09-06T00:22:41;23.90;59.00
42755;DHT22;28407;51.830;5.684;2022-09-06T00:24:42;23.80;59.10
42755;DHT22;28407;51.830;5.684;2022-09-06T00:26:42;23.80;59.20
42755;DHT22;28407;51.830;5.684;2022-09-06T00:28:43;23.80;59.30
42755;DHT22;28407;51.830;5.684;2022-09-06T00:30:44;23.80;59.30
42755;DHT22;28407;51.830;5.684;2022-09-06T00:32:44;23.80;59.50
42755;DHT22;28407;51.830;5.684;2022-09-06T00:34:45;23.80;59.60
42755;DHT22;28407;51.830;5.684;2022-09-06T00:36:45;23.70;59.70
42755;DHT22;28407;51.830;5.684;2022-09-06T00:38:46;23.70;59.90
42755;DHT22;28407;51.830;5.684;2022-09-06T00:40:47;23.70;60.10
42755;DHT22;28407;51.830;5.684;2022-09-06T00:42:47;23.70;60.30
42755;DHT22;28407;51.830;5.684;2022-09-06T00:44:48;23.60;60.40
42755;DHT22;28407;51.830;5.684;2022-09-06T00:46:51;23.60;60.60
42755;DHT22;28407;51.830;5.684;2022-09-06T00:48:58;23.50;60.80
42755;DHT22;28407;51.830;5.684;2022-09-06T00:51:02;23.60;61.00
42755;DHT22;28407;51.830;5.684;2022-09-06T00:53:03;23.50;61.10
42755;DHT22;28407;51.830;5.684;2022-09-06T00:55:04;23.50;61.10
42755;DHT22;28407;51.830;5.684;2022-09-06T00:57:05;23.50;61.30
42755;DHT22;28407;51.830;5.684;2022-09-06T00:59:06;23.50;61.50
42755;DHT22;28407;51.830;5.684;2022-09-06T01:01:07;23.50;61.50
42755;DHT22;28407;51.830;5.684;2022-09-06T01:03:09;23.40;61.70
42755;DHT22;28407;51.830;5.684;2022-09-06T01:05:10;23.40;61.80
42755;DHT22;28407;51.830;5.684;2022-09-06T01:07:44;23.30;62.00
42755;DHT22;28407;51.830;5.684;2022-09-06T01:10:05;23.30;62.20
42755;DHT22;28407;51.830;5.684;2022-09-06T01:18:53;23.20;62.80
42755;DHT22;28407;51.830;5.684;2022-09-06T01:21:23;23.20;62.80
42755;DHT22;28407;51.830;5.684;2022-09-06T01:28:36;23.10;63.40
42755;DHT22;28407;51.830;5.684;2022-09-06T01:30:43;23.10;63.50
42755;DHT22;28407;51.830;5.684;2022-09-06T01:32:59;23.10;63.60
42755;DHT22;28407;51.830;5.684;2022-09-06T01:35:10;23.10;63.90
42755;DHT22;28407;51.830;5.684;2022-09-06T01:37:17;23.10;64.00
42755;DHT22;28407;51.830;5.684;2022-09-06T01:39:31;23.10;64.20
42755;DHT22;28407;51.830;5.684;2022-09-06T01:41:32;23.00;64.30
42755;DHT22;28407;51.830;5.684;2022-09-06T01:43:35;23.00;64.30
42755;DHT22;28407;51.830;5.684;2022-09-06T01:48:15;23.10;64.50
42755;DHT22;28407;51.830;5.684;2022-09-06T01:50:41;23.10;64.60
42755;DHT22;28407;51.830;5.684;2022-09-06T01:53:05;23.10;64.60
42755;DHT22;28407;51.830;5.684;2022-09-06T01:55:23;23.10;64.60
42755;DHT22;28407;51.830;5.684;2022-09-06T01:57:40;23.10;64.60
42755;DHT22;28407;51.830;5.684;2022-09-06T02:00:04;23.10;64.70
42755;DHT22;28407;51.830;5.684;2022-09-06T02:03:12;23.00;64.70
42755;DHT22;28407;51.830;5.684;2022-09-06T02:04:51;23.00;64.80
42755;DHT22;28407;51.830;5.684;2022-09-06T02:06:59;23.00;64.90
42755;DHT22;28407;51.830;5.684;2022-09-06T02:09:04;22.90;65.10
42755;DHT22;28407;51.830;5.684;2022-09-06T02:11:07;22.90;65.20
42755;DHT22;28407;51.830;5.684;2022-09-06T02:13:09;22.80;65.40
42755;DHT22;28407;51.830;5.684;2022-09-06T02:15:36;22.80;65.60
42755;DHT22;28407;51.830;5.684;2022-09-06T02:17:41;22.70;65.80
42755;DHT22;28407;51.830;5.684;2022-09-06T02:19:48;22.60;65.80
42755;DHT22;28407;51.830;5.684;2022-09-06T02:21:51;22.50;66.10
42755;DHT22;28407;51.830;5.684;2022-09-06T02:23:55;22.40;66.40
42755;DHT22;28407;51.830;5.684;2022-09-06T02:26:07;22.30;66.50
42755;DHT22;28407;51.830;5.684;2022-09-06T02:28:11;22.30;66.70
42755;DHT22;28407;51.830;5.684;2022-09-06T02:30:12;22.30;66.80
42755;DHT22;28407;51.830;5.684;2022-09-06T02:32:18;22.30;66.70
42755;DHT22;28407;51.830;5.684;2022-09-06T02:34:20;22.30;66.80
42755;DHT22;28407;51.830;5.684;2022-09-06T02:36:21;22.30;66.80
42755;DHT22;28407;51.830;5.684;2022-09-06T02:38:23;22.40;66.80
42755;DHT22;28407;51.830;5.684;2022-09-06T02:40:24;22.40;66.80
42755;DHT22;28407;51.830;5.684;2022-09-06T02:42:25;22.40;66.80
42755;DHT22;28407;51.830;5.684;2022-09-06T02:44:26;22.50;66.70
42755;DHT22;28407;51.830;5.684;2022-09-06T02:46:27;22.50;66.70
42755;DHT22;28407;51.830;5.684;2022-09-06T02:48:27;22.50;66.80
42755;DHT22;28407;51.830;5.684;2022-09-06T02:50:28;22.50;66.80
42755;DHT22;28407;51.830;5.684;2022-09-06T02:52:29;22.50;66.90
42755;DHT22;28407;51.830;5.684;2022-09-06T02:54:29;22.50;66.90
42755;DHT22;28407;51.830;5.684;2022-09-06T02:56:30;22.50;67.00
42755;DHT22;28407;51.830;5.684;2022-09-06T02:58:33;22.40;67.00
42755;DHT22;28407;51.830;5.684;2022-09-06T03:00:33;22.50;67.10
42755;DHT22;28407;51.830;5.684;2022-09-06T03:02:34;22.50;67.10
42755;DHT22;28407;51.830;5.684;2022-09-06T03:04:35;22.50;67.20
42755;DHT22;28407;51.830;5.684;2022-09-06T03:06:35;22.50;67.30
42755;DHT22;28407;51.830;5.684;2022-09-06T03:08:36;22.50;67.20
42755;DHT22;28407;51.830;5.684;2022-09-06T03:10:37;22.40;67.30
42755;DHT22;28407;51.830;5.684;2022-09-06T03:12:38;22.50;67.50
42755;DHT22;28407;51.830;5.684;2022-09-06T03:14:38;22.50;67.50
42755;DHT22;28407;51.830;5.684;2022-09-06T03:16:40;22.40;67.50
42755;DHT22;28407;51.830;5.684;2022-09-06T03:18:41;22.50;67.50
42755;DHT22;28407;51.830;5.684;2022-09-06T03:20:42;22.40;67.60
42755;DHT22;28407;51.830;5.684;2022-09-06T03:22:42;22.40;67.70
42755;DHT22;28407;51.830;5.684;2022-09-06T03:24:43;22.40;67.70
42755;DHT22;28407;51.830;5.684;2022-09-06T03:26:43;22.40;67.70
42755;DHT22;28407;51.830;5.684;2022-09-06T03:28:44;22.40;67.70
42755;DHT22;28407;51.830;5.684;2022-09-06T03:30:46;22.40;67.90
42755;DHT22;28407;51.830;5.684;2022-09-06T03:32:47;22.40;67.90
42755;DHT22;28407;51.830;5.684;2022-09-06T03:34:48;22.30;68.00
42755;DHT22;28407;51.830;5.684;2022-09-06T03:36:48;22.30;68.10
42755;DHT22;28407;51.830;5.684;2022-09-06T03:38:49;22.30;68.30
42755;DHT22;28407;51.830;5.684;2022-09-06T03:40:50;22.30;68.30
42755;DHT22;28407;51.830;5.684;2022-09-06T03:42:52;22.20;68.20
42755;DHT22;28407;51.830;5.684;2022-09-06T03:44:52;22.20;68.30
42755;DHT22;28407;51.830;5.684;2022-09-06T03:46:53;22.30;68.30
42755;DHT22;28407;51.830;5.684;2022-09-06T03:48:54;22.30;68.30
42755;DHT22;28407;51.830;5.684;2022-09-06T03:50:56;22.30;68.30
42755;DHT22;28407;51.830;5.684;2022-09-06T03:52:57;22.30;68.40
42755;DHT22;28407;51.830;5.684;2022-09-06T03:54:57;22.30;68.50
42755;DHT22;28407;51.830;5.684;2022-09-06T03:56:58;22.30;68.50
42755;DHT22;28407;51.830;5.684;2022-09-06T03:58:59;22.30;68.50
42755;DHT22;28407;51.830;5.684;2022-09-06T04:01:07;22.30;68.50
42755;DHT22;28407;51.830;5.684;2022-09-06T04:03:09;22.30;68.50
42755;DHT22;28407;51.830;5.684;2022-09-06T04:05:10;22.30;68.50
42755;DHT22;28407;51.830;5.684;2022-09-06T04:07:12;22.30;68.50
42755;DHT22;28407;51.830;5.684;2022-09-06T04:09:13;22.30;68.60
42755;DHT22;28407;51.830;5.684;2022-09-06T04:11:14;22.20;68.50
42755;DHT22;28407;51.830;5.684;2022-09-06T04:13:15;22.20;68.50
42755;DHT22;28407;51.830;5.684;2022-09-06T04:15:16;22.20;68.70
42755;DHT22;28407;51.830;5.684;2022-09-06T04:17:16;22.20;68.70
42755;DHT22;28407;51.830;5.684;2022-09-06T04:19:17;22.20;68.80
42755;DHT22;28407;51.830;5.684;2022-09-06T04:21:18;22.20;68.80
42755;DHT22;28407;51.830;5.684;2022-09-06T04:23:19;22.20;68.80
42755;DHT22;28407;51.830;5.684;2022-09-06T04:25:20;22.10;68.90
42755;DHT22;28407;51.830;5.684;2022-09-06T04:27:20;22.10;68.90
42755;DHT22;28407;51.830;5.684;2022-09-06T04:29:21;22.10;69.00
42755;DHT22;28407;51.830;5.684;2022-09-06T04:31:21;22.10;69.00
42755;DHT22;28407;51.830;5.684;2022-09-06T04:33:22;22.10;69.10
42755;DHT22;28407;51.830;5.684;2022-09-06T04:35:25;22.10;69.10
42755;DHT22;28407;51.830;5.684;2022-09-06T04:37:25;22.10;69.20
42755;DHT22;28407;51.830;5.684;2022-09-06T04:39:26;22.00;69.10
42755;DHT22;28407;51.830;5.684;2022-09-06T04:41:26;22.00;69.10
42755;DHT22;28407;51.830;5.684;2022-09-06T04:43:27;22.00;69.20
42755;DHT22;28407;51.830;5.684;2022-09-06T04:45:28;22.00;69.20
42755;DHT22;28407;51.830;5.684;2022-09-06T04:47:28;22.00;69.30
42755;DHT22;28407;51.830;5.684;2022-09-06T04:49:29;21.90;69.20
42755;DHT22;28407;51.830;5.684;2022-09-06T04:51:29;21.90;69.20
42755;DHT22;28407;51.830;5.684;2022-09-06T04:53:30;21.90;69.30
42755;DHT22;28407;51.830;5.684;2022-09-06T04:55:32;21.90;69.30
42755;DHT22;28407;51.830;5.684;2022-09-06T04:57:33;21.90;69.30
42755;DHT22;28407;51.830;5.684;2022-09-06T04:59:33;21.80;69.30
42755;DHT22;28407;51.830;5.684;2022-09-06T05:01:34;21.80;69.30
42755;DHT22;28407;51.830;5.684;2022-09-06T05:03:35;21.80;69.30
42755;DHT22;28407;51.830;5.684;2022-09-06T05:05:35;21.80;69.30
42755;DHT22;28407;51.830;5.684;2022-09-06T05:07:36;21.80;69.20
42755;DHT22;28407;51.830;5.684;2022-09-06T05:09:36;21.80;69.20
42755;DHT22;28407;51.830;5.684;2022-09-06T05:11:37;21.80;69.20
42755;DHT22;28407;51.830;5.684;2022-09-06T05:13:38;21.80;69.20
42755;DHT22;28407;51.830;5.684;2022-09-06T05:15:38;21.80;69.20
42755;DHT22;28407;51.830;5.684;2022-09-06T05:17:39;21.80;69.30
42755;DHT22;28407;51.830;5.684;2022-09-06T05:19:40;21.80;69.40
42755;DHT22;28407;51.830;5.684;2022-09-06T05:21:41;21.70;69.40
42755;DHT22;28407;51.830;5.684;2022-09-06T05:23:41;21.70;69.40
42755;DHT22;28407;51.830;5.684;2022-09-06T05:25:42;21.70;69.50
42755;DHT22;28407;51.830;5.684;2022-09-06T05:27:42;21.70;69.50
42755;DHT22;28407;51.830;5.684;2022-09-06T05:29:43;21.70;69.50
42755;DHT22;28407;51.830;5.684;2022-09-06T05:31:43;21.60;69.50
42755;DHT22;28407;51.830;5.684;2022-09-06T05:33:44;21.60;69.50
42755;DHT22;28407;51.830;5.684;2022-09-06T05:35:45;21.60;69.50
42755;DHT22;28407;51.830;5.684;2022-09-06T05:37:45;21.60;69.50
42755;DHT22;28407;51.830;5.684;2022-09-06T05:39:46;21.50;69.60
42755;DHT22;28407;51.830;5.684;2022-09-06T05:41:47;21.50;69.60
42755;DHT22;28407;51.830;5.684;2022-09-06T05:43:47;21.50;69.70
42755;DHT22;28407;51.830;5.684;2022-09-06T05:45:48;21.50;69.60
42755;DHT22;28407;51.830;5.684;2022-09-06T05:47:49;21.50;69.60
42755;DHT22;28407;51.830;5.684;2022-09-06T05:49:49;21.50;69.50
42755;DHT22;28407;51.830;5.684;2022-09-06T05:51:51;21.60;69.50
42755;DHT22;28407;51.830;5.684;2022-09-06T05:53:52;21.60;69.50
42755;DHT22;28407;51.830;5.684;2022-09-06T05:55:52;21.60;69.40
42755;DHT22;28407;51.830;5.684;2022-09-06T05:57:53;21.60;69.30
42755;DHT22;28407;51.830;5.684;2022-09-06T05:59:53;21.60;69.30
42755;DHT22;28407;51.830;5.684;2022-09-06T06:01:54;21.60;69.30
42755;DHT22;28407;51.830;5.684;2022-09-06T06:03:55;21.60;69.20
42755;DHT22;28407;51.830;5.684;2022-09-06T06:05:56;21.60;69.20
42755;DHT22;28407;51.830;5.684;2022-09-06T06:07:57;21.60;69.20
42755;DHT22;28407;51.830;5.684;2022-09-06T06:09:58;21.60;69.20
42755;DHT22;28407;51.830;5.684;2022-09-06T06:11:59;21.60;69.10
42755;DHT22;28407;51.830;5.684;2022-09-06T06:14:01;21.70;69.10
42755;DHT22;28407;51.830;5.684;2022-09-06T06:16:02;21.70;69.20
42755;DHT22;28407;51.830;5.684;2022-09-06T06:18:03;21.70;69.10
42755;DHT22;28407;51.830;5.684;2022-09-06T06:20:03;21.70;69.10
42755;DHT22;28407;51.830;5.684;2022-09-06T06:22:04;21.80;69.10
42755;DHT22;28407;51.830;5.684;2022-09-06T06:24:05;21.70;69.10
42755;DHT22;28407;51.830;5.684;2022-09-06T06:26:07;21.70;69.20
42755;DHT22;28407;51.830;5.684;2022-09-06T06:28:08;21.70;69.20
42755;DHT22;28407;51.830;5.684;2022-09-06T06:30:08;21.70;69.30
42755;DHT22;28407;51.830;5.684;2022-09-06T06:32:09;21.70;69.40
42755;DHT22;28407;51.830;5.684;2022-09-06T06:34:10;21.70;70.10
42755;DHT22;28407;51.830;5.684;2022-09-06T06:38:14;21.80;69.60
42755;DHT22;28407;51.830;5.684;2022-09-06T06:40:14;21.80;69.50
42755;DHT22;28407;51.830;5.684;2022-09-06T06:42:15;21.80;69.50
42755;DHT22;28407;51.830;5.684;2022-09-06T06:44:24;21.80;69.60
42755;DHT22;28407;51.830;5.684;2022-09-06T06:46:29;21.80;69.70
42755;DHT22;28407;51.830;5.684;2022-09-06T06:48:30;21.80;69.70
42755;DHT22;28407;51.830;5.684;2022-09-06T06:50:31;21.80;69.80
42755;DHT22;28407;51.830;5.684;2022-09-06T06:52:32;21.80;70.50
42755;DHT22;28407;51.830;5.684;2022-09-06T06:54:32;21.80;69.80
42755;DHT22;28407;51.830;5.684;2022-09-06T06:56:38;21.80;69.80
42755;DHT22;28407;51.830;5.684;2022-09-06T06:58:40;21.80;69.80
42755;DHT22;28407;51.830;5.684;2022-09-06T07:00:41;21.90;69.70
42755;DHT22;28407;51.830;5.684;2022-09-06T07:02:42;21.90;69.60
42755;DHT22;28407;51.830;5.684;2022-09-06T07:04:43;21.90;69.50
42755;DHT22;28407;51.830;5.684;2022-09-06T07:06:51;21.90;69.40
42755;DHT22;28407;51.830;5.684;2022-09-06T07:08:55;21.90;69.50
42755;DHT22;28407;51.830;5.684;2022-09-06T07:10:55;21.90;69.50
42755;DHT22;28407;51.830;5.684;2022-09-06T07:12:56;21.90;69.60
42755;DHT22;28407;51.830;5.684;2022-09-06T07:14:57;21.90;69.70
42755;DHT22;28407;51.830;5.684;2022-09-06T07:16:58;21.90;69.70
42755;DHT22;28407;51.830;5.684;2022-09-06T07:18:58;22.00;69.80
42755;DHT22;28407;51.830;5.684;2022-09-06T07:20:59;22.00;69.70
42755;DHT22;28407;51.830;5.684;2022-09-06T07:23:02;22.00;69.60
42755;DHT22;28407;51.830;5.684;2022-09-06T07:25:06;22.10;69.50
42755;DHT22;28407;51.830;5.684;2022-09-06T07:27:06;22.10;69.40
42755;DHT22;28407;51.830;5.684;2022-09-06T07:29:07;22.10;69.30
42755;DHT22;28407;51.830;5.684;2022-09-06T07:31:09;22.10;69.20
42755;DHT22;28407;51.830;5.684;2022-09-06T07:33:09;22.10;69.30
42755;DHT22;28407;51.830;5.684;2022-09-06T07:35:10;22.10;69.30
42755;DHT22;28407;51.830;5.684;2022-09-06T07:37:13;22.10;69.30
42755;DHT22;28407;51.830;5.684;2022-09-06T07:39:14;22.10;69.20
42755;DHT22;28407;51.830;5.684;2022-09-06T07:41:15;22.20;69.20
42755;DHT22;28407;51.830;5.684;2022-09-06T07:43:16;22.20;69.10
42755;DHT22;28407;51.830;5.684;2022-09-06T07:45:17;22.20;68.90
42755;DHT22;28407;51.830;5.684;2022-09-06T07:47:18;22.20;68.90
42755;DHT22;28407;51.830;5.684;2022-09-06T07:49:18;22.30;68.90
42755;DHT22;28407;51.830;5.684;2022-09-06T07:51:20;22.30;68.90
42755;DHT22;28407;51.830;5.684;2022-09-06T07:53:21;22.40;68.80
42755;DHT22;28407;51.830;5.684;2022-09-06T07:55:21;22.30;68.70
42755;DHT22;28407;51.830;5.684;2022-09-06T07:57:22;22.40;68.60
42755;DHT22;28407;51.830;5.684;2022-09-06T07:59:23;22.40;68.50
42755;DHT22;28407;51.830;5.684;2022-09-06T08:01:27;22.40;68.40
42755;DHT22;28407;51.830;5.684;2022-09-06T08:03:29;22.40;68.30
42755;DHT22;28407;51.830;5.684;2022-09-06T08:05:30;22.40;68.30
42755;DHT22;28407;51.830;5.684;2022-09-06T08:07:31;22.40;68.20
42755;DHT22;28407;51.830;5.684;2022-09-06T08:09:31;22.50;68.20
42755;DHT22;28407;51.830;5.684;2022-09-06T08:11:33;22.50;68.10
42755;DHT22;28407;51.830;5.684;2022-09-06T08:13:35;22.50;67.90
42755;DHT22;28407;51.830;5.684;2022-09-06T08:15:35;22.60;67.80
42755;DHT22;28407;51.830;5.684;2022-09-06T08:17:36;22.60;67.70
42755;DHT22;28407;51.830;5.684;2022-09-06T08:19:36;22.60;67.50
42755;DHT22;28407;51.830;5.684;2022-09-06T08:21:38;22.70;67.50
42755;DHT22;28407;51.830;5.684;2022-09-06T08:23:39;22.70;67.40
42755;DHT22;28407;51.830;5.684;2022-09-06T08:25:43;22.70;67.30
42755;DHT22;28407;51.830;5.684;2022-09-06T08:27:44;22.80;67.20
42755;DHT22;28407;51.830;5.684;2022-09-06T08:29:44;22.80;67.20
42755;DHT22;28407;51.830;5.684;2022-09-06T08:31:45;22.80;67.10
42755;DHT22;28407;51.830;5.684;2022-09-06T08:33:46;22.90;67.10
42755;DHT22;28407;51.830;5.684;2022-09-06T08:35:59;22.90;67.00
42755;DHT22;28407;51.830;5.684;2022-09-06T08:38:00;23.00;67.00
42755;DHT22;28407;51.830;5.684;2022-09-06T08:40:00;23.00;66.80
42755;DHT22;28407;51.830;5.684;2022-09-06T08:42:04;23.00;66.50
42755;DHT22;28407;51.830;5.684;2022-09-06T08:44:10;23.10;66.40
42755;DHT22;28407;51.830;5.684;2022-09-06T08:46:12;23.10;66.30
42755;DHT22;28407;51.830;5.684;2022-09-06T08:48:14;23.10;66.20
42755;DHT22;28407;51.830;5.684;2022-09-06T08:50:15;23.20;66.10
42755;DHT22;28407;51.830;5.684;2022-09-06T08:52:24;23.20;66.00
42755;DHT22;28407;51.830;5.684;2022-09-06T08:57:02;23.30;65.80
42755;DHT22;28407;51.830;5.684;2022-09-06T08:59:05;23.40;65.50
42755;DHT22;28407;51.830;5.684;2022-09-06T09:01:11;23.40;65.40
42755;DHT22;28407;51.830;5.684;2022-09-06T09:03:16;23.50;65.30
42755;DHT22;28407;51.830;5.684;2022-09-06T09:05:24;23.50;65.10
42755;DHT22;28407;51.830;5.684;2022-09-06T09:07:43;23.50;64.90
42755;DHT22;28407;51.830;5.684;2022-09-06T09:09:45;23.60;64.70
42755;DHT22;28407;51.830;5.684;2022-09-06T09:11:49;23.60;64.50
42755;DHT22;28407;51.830;5.684;2022-09-06T09:13:56;23.70;64.40
42755;DHT22;28407;51.830;5.684;2022-09-06T09:16:01;23.70;64.20
42755;DHT22;28407;51.830;5.684;2022-09-06T09:18:03;23.80;64.00
42755;DHT22;28407;51.830;5.684;2022-09-06T09:20:04;23.80;63.80
42755;DHT22;28407;51.830;5.684;2022-09-06T09:22:08;23.80;63.60
42755;DHT22;28407;51.830;5.684;2022-09-06T09:24:11;23.90;63.40
42755;DHT22;28407;51.830;5.684;2022-09-06T09:26:13;23.90;63.20
42755;DHT22;28407;51.830;5.684;2022-09-06T09:28:21;23.90;63.10
42755;DHT22;28407;51.830;5.684;2022-09-06T09:30:27;24.00;63.00
42755;DHT22;28407;51.830;5.684;2022-09-06T09:32:44;24.00;62.80
42755;DHT22;28407;51.830;5.684;2022-09-06T09:34:45;24.10;62.60
42755;DHT22;28407;51.830;5.684;2022-09-06T09:36:45;24.10;62.30
42755;DHT22;28407;51.830;5.684;2022-09-06T09:38:46;24.10;62.10
42755;DHT22;28407;51.830;5.684;2022-09-06T09:40:53;24.10;62.00
42755;DHT22;28407;51.830;5.684;2022-09-06T09:43:08;24.20;61.80
42755;DHT22;28407;51.830;5.684;2022-09-06T09:45:27;24.30;61.60
42755;DHT22;28407;51.830;5.684;2022-09-06T09:47:30;24.30;61.50
42755;DHT22;28407;51.830;5.684;2022-09-06T09:49:32;24.40;61.30
42755;DHT22;28407;51.830;5.684;2022-09-06T09:51:38;24.40;61.20
42755;DHT22;28407;51.830;5.684;2022-09-06T09:53:52;24.50;61.00
42755;DHT22;28407;51.830;5.684;2022-09-06T09:55:55;24.50;60.70
42755;DHT22;28407;51.830;5.684;2022-09-06T09:57:56;24.60;60.70
42755;DHT22;28407;51.830;5.684;2022-09-06T09:59:59;24.60;60.50
42755;DHT22;28407;51.830;5.684;2022-09-06T10:02:29;24.70;60.30
42755;DHT22;28407;51.830;5.684;2022-09-06T10:04:43;24.80;60.10
42755;DHT22;28407;51.830;5.684;2022-09-06T10:06:45;24.80;59.90
42755;DHT22;28407;51.830;5.684;2022-09-06T10:08:45;24.80;59.70
42755;DHT22;28407;51.830;5.684;2022-09-06T10:10:46;24.90;59.70
42755;DHT22;28407;51.830;5.684;2022-09-06T10:12:47;24.90;59.60
42755;DHT22;28407;51.830;5.684;2022-09-06T10:14:49;25.00;59.50
42755;DHT22;28407;51.830;5.684;2022-09-06T10:16:49;25.00;59.20
42755;DHT22;28407;51.830;5.684;2022-09-06T10:18:51;25.10;59.00
42755;DHT22;28407;51.830;5.684;2022-09-06T10:21:13;25.10;59.00
42755;DHT22;28407;51.830;5.684;2022-09-06T10:23:27;25.20;58.70
42755;DHT22;28407;51.830;5.684;2022-09-06T10:30:09;25.40;58.30
42755;DHT22;28407;51.830;5.684;2022-09-06T10:32:47;25.40;58.10
42755;DHT22;28407;51.830;5.684;2022-09-06T10:46:02;25.80;57.40
42755;DHT22;28407;51.830;5.684;2022-09-06T10:50:10;26.00;57.20
42755;DHT22;28407;51.830;5.684;2022-09-06T10:52:16;26.10;57.10
42755;DHT22;28407;51.830;5.684;2022-09-06T10:54:23;26.10;56.90
42755;DHT22;28407;51.830;5.684;2022-09-06T10:58:32;26.20;56.80
42755;DHT22;28407;51.830;5.684;2022-09-06T11:00:39;26.30;56.80
42755;DHT22;28407;51.830;5.684;2022-09-06T11:03:00;26.40;56.80
42755;DHT22;28407;51.830;5.684;2022-09-06T11:05:11;26.50;56.70
42755;DHT22;28407;51.830;5.684;2022-09-06T11:07:28;26.50;56.60
42755;DHT22;28407;51.830;5.684;2022-09-06T11:12:08;26.70;56.30
42755;DHT22;28407;51.830;5.684;2022-09-06T11:14:12;26.80;56.20
42755;DHT22;28407;51.830;5.684;2022-09-06T11:16:26;26.90;56.00
42755;DHT22;28407;51.830;5.684;2022-09-06T11:18:40;26.90;55.70
42755;DHT22;28407;51.830;5.684;2022-09-06T11:23:46;27.10;55.40
42755;DHT22;28407;51.830;5.684;2022-09-06T11:27:56;27.30;55.30
42755;DHT22;28407;51.830;5.684;2022-09-06T11:29:58;27.40;55.20
42755;DHT22;28407;51.830;5.684;2022-09-06T11:32:02;27.50;55.00
42755;DHT22;28407;51.830;5.684;2022-09-06T11:34:10;27.50;54.80
42755;DHT22;28407;51.830;5.684;2022-09-06T11:38:23;27.70;54.60
42755;DHT22;28407;51.830;5.684;2022-09-06T11:40:34;27.80;54.60
42755;DHT22;28407;51.830;5.684;2022-09-06T11:46:58;28.10;54.10
42755;DHT22;28407;51.830;5.684;2022-09-06T11:49:05;28.20;54.10
42755;DHT22;28407;51.830;5.684;2022-09-06T11:51:08;28.30;53.90
42755;DHT22;28407;51.830;5.684;2022-09-06T11:53:16;28.30;53.60
42755;DHT22;28407;51.830;5.684;2022-09-06T11:55:17;28.40;53.40
42755;DHT22;28407;51.830;5.684;2022-09-06T11:57:21;28.50;53.30
42755;DHT22;28407;51.830;5.684;2022-09-06T11:59:33;28.60;53.30
42755;DHT22;28407;51.830;5.684;2022-09-06T12:01:36;28.60;53.20
42755;DHT22;28407;51.830;5.684;2022-09-06T12:06:33;28.70;53.00
42755;DHT22;28407;51.830;5.684;2022-09-06T12:08:34;28.80;52.90
42755;DHT22;28407;51.830;5.684;2022-09-06T12:12:48;29.00;52.60
42755;DHT22;28407;51.830;5.684;2022-09-06T12:14:50;29.00;52.40
42755;DHT22;28407;51.830;5.684;2022-09-06T12:18:57;29.20;52.00
42755;DHT22;28407;51.830;5.684;2022-09-06T12:21:01;29.20;51.90
42755;DHT22;28407;51.830;5.684;2022-09-06T12:23:02;29.30;51.80
42755;DHT22;28407;51.830;5.684;2022-09-06T12:25:48;29.40;51.60
42755;DHT22;28407;51.830;5.684;2022-09-06T12:27:55;29.50;51.40
42755;DHT22;28407;51.830;5.684;2022-09-06T12:30:07;29.60;51.30
42755;DHT22;28407;51.830;5.684;2022-09-06T12:32:08;29.60;51.10
42755;DHT22;28407;51.830;5.684;2022-09-06T12:34:16;29.80;51.10
42755;DHT22;28407;51.830;5.684;2022-09-06T12:36:29;29.80;50.80
42755;DHT22;28407;51.830;5.684;2022-09-06T12:38:30;29.90;50.70
42755;DHT22;28407;51.830;5.684;2022-09-06T12:40:34;29.90;50.80
42755;DHT22;28407;51.830;5.684;2022-09-06T12:42:37;30.00;50.70
42755;DHT22;28407;51.830;5.684;2022-09-06T12:44:41;30.10;50.60
42755;DHT22;28407;51.830;5.684;2022-09-06T12:46:48;30.10;50.30
42755;DHT22;28407;51.830;5.684;2022-09-06T12:49:07;30.20;50.20
42755;DHT22;28407;51.830;5.684;2022-09-06T12:51:18;30.30;50.00
42755;DHT22;28407;51.830;5.684;2022-09-06T12:53:21;30.30;49.90
42755;DHT22;28407;51.830;5.684;2022-09-06T12:55:30;30.40;49.80
42755;DHT22;28407;51.830;5.684;2022-09-06T12:57:32;30.50;49.60
42755;DHT22;28407;51.830;5.684;2022-09-06T12:59:33;30.60;49.50
42755;DHT22;28407;51.830;5.684;2022-09-06T13:01:34;30.60;49.30
42755;DHT22;28407;51.830;5.684;2022-09-06T13:06:14;30.90;49.10
42755;DHT22;28407;51.830;5.684;2022-09-06T13:08:29;30.90;49.00
42755;DHT22;28407;51.830;5.684;2022-09-06T13:10:31;31.00;48.80
42755;DHT22;28407;51.830;5.684;2022-09-06T13:12:34;31.10;48.80
42755;DHT22;28407;51.830;5.684;2022-09-06T13:14:35;31.20;48.50
42755;DHT22;28407;51.830;5.684;2022-09-06T13:16:42;31.20;48.30
42755;DHT22;28407;51.830;5.684;2022-09-06T13:18:44;31.30;48.10
42755;DHT22;28407;51.830;5.684;2022-09-06T13:20:44;31.40;47.90
42755;DHT22;28407;51.830;5.684;2022-09-06T13:22:47;31.40;47.60
42755;DHT22;28407;51.830;5.684;2022-09-06T13:24:48;31.50;47.40
42755;DHT22;28407;51.830;5.684;2022-09-06T13:26:49;31.50;47.20
42755;DHT22;28407;51.830;5.684;2022-09-06T13:28:50;31.60;47.00
42755;DHT22;28407;51.830;5.684;2022-09-06T13:33:24;31.80;46.30
42755;DHT22;28407;51.830;5.684;2022-09-06T13:35:28;31.90;46.10
42755;DHT22;28407;51.830;5.684;2022-09-06T13:37:31;31.90;45.90
42755;DHT22;28407;51.830;5.684;2022-09-06T13:41:38;32.00;45.50
42755;DHT22;28407;51.830;5.684;2022-09-06T13:43:44;32.10;45.40
42755;DHT22;28407;51.830;5.684;2022-09-06T13:45:45;32.10;45.20
42755;DHT22;28407;51.830;5.684;2022-09-06T13:47:46;32.10;45.10
42755;DHT22;28407;51.830;5.684;2022-09-06T13:49:47;32.10;45.00
42755;DHT22;28407;51.830;5.684;2022-09-06T13:51:48;32.20;45.00
42755;DHT22;28407;51.830;5.684;2022-09-06T13:53:49;32.10;45.00
42755;DHT22;28407;51.830;5.684;2022-09-06T13:55:50;32.20;45.00
42755;DHT22;28407;51.830;5.684;2022-09-06T13:57:52;32.20;45.00
42755;DHT22;28407;51.830;5.684;2022-09-06T13:59:52;32.20;45.00
42755;DHT22;28407;51.830;5.684;2022-09-06T14:02:01;32.20;44.90
42755;DHT22;28407;51.830;5.684;2022-09-06T14:04:03;32.20;44.80
42755;DHT22;28407;51.830;5.684;2022-09-06T14:06:04;32.20;44.80
42755;DHT22;28407;51.830;5.684;2022-09-06T14:08:05;32.20;44.60